Terminal Aerodrome Forecast
Issued by NWS

Home | Current Version | Previous Version | Text Only | Print | Product List | Glossary On
Versions: 1 2 3 4 5 6 7 8 9 10 11 12 13 14 15 16 17 18
000
FTUS42 KTBW 232337
TAFRSW
TAF
KRSW 232337Z 2400/2424 VRB06KT P6SM VCSH SCT030 BKN060
     FM240200 VRB03KT P6SM SCT040 BKN250
     FM241600 13005KT P6SM VCTS FEW020CB BKN100
     FM242100 19007KT P6SM VCTS SCT025CB OVC050=

USA.gov is the U.S. government's official web portal to all federal, state and local government web resources and services.